sensor_id;sensor_type;location;lat;lon;timestamp;P1;P2;P0
62591;PMS5003;48659;41.622;2.276;2023-07-13T00:02:00;21;19;
62591;PMS5003;48659;41.622;2.276;2023-07-13T00:04:27;22;21;
62591;PMS5003;48659;41.622;2.276;2023-07-13T00:06:55;17;17;
62591;PMS5003;48659;41.622;2.276;2023-07-13T00:09:22;18;18;
62591;PMS5003;48659;41.622;2.276;2023-07-13T00:11:56;17;17;
62591;PMS5003;48659;41.622;2.276;2023-07-13T00:14:24;16;16;
62591;PMS5003;48659;41.622;2.276;2023-07-13T00:16:53;18;16;
62591;PMS5003;48659;41.622;2.276;2023-07-13T00:19:21;21;21;
62591;PMS5003;48659;41.622;2.276;2023-07-13T00:21:49;19;17;
62591;PMS5003;48659;41.622;2.276;2023-07-13T00:24:17;18;16;
62591;PMS5003;48659;41.622;2.276;2023-07-13T00:26:44;18;18;
62591;PMS5003;48659;41.622;2.276;2023-07-13T00:29:12;21;21;
62591;PMS5003;48659;41.622;2.276;2023-07-13T00:31:39;23;19;
62591;PMS5003;48659;41.622;2.276;2023-07-13T00:34:07;23;21;
62591;PMS5003;48659;41.622;2.276;2023-07-13T00:36:34;22;20;
62591;PMS5003;48659;41.622;2.276;2023-07-13T00:39:02;21;19;
62591;PMS5003;48659;41.622;2.276;2023-07-13T00:41:29;20;20;
62591;PMS5003;48659;41.622;2.276;2023-07-13T00:43:57;24;18;
62591;PMS5003;48659;41.622;2.276;2023-07-13T00:46:26;18;18;
62591;PMS5003;48659;41.622;2.276;2023-07-13T00:48:55;16;16;
62591;PMS5003;48659;41.622;2.276;2023-07-13T00:51:30;19;18;
62591;PMS5003;48659;41.622;2.276;2023-07-13T00:54:03;21;20;
62591;PMS5003;48659;41.622;2.276;2023-07-13T00:56:33;19;19;
62591;PMS5003;48659;41.622;2.276;2023-07-13T00:59:03;23;19;
62591;PMS5003;48659;41.622;2.276;2023-07-13T01:01:35;21;21;
62591;PMS5003;48659;41.622;2.276;2023-07-13T01:04:03;30;28;
62591;PMS5003;48659;41.622;2.276;2023-07-13T01:06:30;27;25;
62591;PMS5003;48659;41.622;2.276;2023-07-13T01:08:58;23;22;
62591;PMS5003;48659;41.622;2.276;2023-07-13T01:11:26;34;28;
62591;PMS5003;48659;41.622;2.276;2023-07-13T01:13:54;25;20;
62591;PMS5003;48659;41.622;2.276;2023-07-13T01:16:23;24;20;
62591;PMS5003;48659;41.622;2.276;2023-07-13T01:18:52;23;23;
62591;PMS5003;48659;41.622;2.276;2023-07-13T01:21:20;29;26;
62591;PMS5003;48659;41.622;2.276;2023-07-13T01:23:48;23;22;
62591;PMS5003;48659;41.622;2.276;2023-07-13T01:26:16;27;26;
62591;PMS5003;48659;41.622;2.276;2023-07-13T01:28:44;17;15;
62591;PMS5003;48659;41.622;2.276;2023-07-13T01:31:12;26;25;
62591;PMS5003;48659;41.622;2.276;2023-07-13T01:33:40;23;22;
62591;PMS5003;48659;41.622;2.276;2023-07-13T01:36:09;20;20;
62591;PMS5003;48659;41.622;2.276;2023-07-13T01:38:38;17;15;
62591;PMS5003;48659;41.622;2.276;2023-07-13T01:41:06;17;16;
62591;PMS5003;48659;41.622;2.276;2023-07-13T01:43:33;18;16;
62591;PMS5003;48659;41.622;2.276;2023-07-13T01:46:00;18;18;
62591;PMS5003;48659;41.622;2.276;2023-07-13T01:48:28;22;20;
62591;PMS5003;48659;41.622;2.276;2023-07-13T01:50:56;20;18;
62591;PMS5003;48659;41.622;2.276;2023-07-13T01:53:23;19;16;
62591;PMS5003;48659;41.622;2.276;2023-07-13T01:55:52;17;16;
62591;PMS5003;48659;41.622;2.276;2023-07-13T01:58:19;20;20;
62591;PMS5003;48659;41.622;2.276;2023-07-13T02:00:54;18;18;
62591;PMS5003;48659;41.622;2.276;2023-07-13T02:03:22;16;16;
62591;PMS5003;48659;41.622;2.276;2023-07-13T02:05:49;16;15;
62591;PMS5003;48659;41.622;2.276;2023-07-13T02:08:17;21;20;
62591;PMS5003;48659;41.622;2.276;2023-07-13T02:10:45;16;14;
62591;PMS5003;48659;41.622;2.276;2023-07-13T02:13:12;19;17;
62591;PMS5003;48659;41.622;2.276;2023-07-13T02:15:40;26;22;
62591;PMS5003;48659;41.622;2.276;2023-07-13T02:18:08;27;19;
62591;PMS5003;48659;41.622;2.276;2023-07-13T02:20:36;24;23;
62591;PMS5003;48659;41.622;2.276;2023-07-13T02:23:03;22;19;
62591;PMS5003;48659;41.622;2.276;2023-07-13T02:25:30;24;22;
62591;PMS5003;48659;41.622;2.276;2023-07-13T02:27:58;23;21;
62591;PMS5003;48659;41.622;2.276;2023-07-13T02:30:26;22;20;
62591;PMS5003;48659;41.622;2.276;2023-07-13T02:32:55;18;18;
62591;PMS5003;48659;41.622;2.276;2023-07-13T02:35:23;20;17;
62591;PMS5003;48659;41.622;2.276;2023-07-13T02:37:51;20;18;
62591;PMS5003;48659;41.622;2.276;2023-07-13T02:40:19;19;18;
62591;PMS5003;48659;41.622;2.276;2023-07-13T02:42:46;25;20;
62591;PMS5003;48659;41.622;2.276;2023-07-13T02:45:14;23;20;
62591;PMS5003;48659;41.622;2.276;2023-07-13T02:47:42;23;22;
62591;PMS5003;48659;41.622;2.276;2023-07-13T02:50:10;17;17;
62591;PMS5003;48659;41.622;2.276;2023-07-13T02:52:38;22;20;
62591;PMS5003;48659;41.622;2.276;2023-07-13T02:55:06;17;17;
62591;PMS5003;48659;41.622;2.276;2023-07-13T02:57:33;20;18;
62591;PMS5003;48659;41.622;2.276;2023-07-13T03:00:01;21;20;
62591;PMS5003;48659;41.622;2.276;2023-07-13T03:02:29;21;20;
62591;PMS5003;48659;41.622;2.276;2023-07-13T03:04:57;16;16;
62591;PMS5003;48659;41.622;2.276;2023-07-13T03:07:25;15;13;
62591;PMS5003;48659;41.622;2.276;2023-07-13T03:09:55;21;21;
62591;PMS5003;48659;41.622;2.276;2023-07-13T03:12:23;19;16;
62591;PMS5003;48659;41.622;2.276;2023-07-13T03:14:51;17;17;
62591;PMS5003;48659;41.622;2.276;2023-07-13T03:17:18;20;16;
62591;PMS5003;48659;41.622;2.276;2023-07-13T03:19:46;19;17;
62591;PMS5003;48659;41.622;2.276;2023-07-13T03:22:14;20;19;
62591;PMS5003;48659;41.622;2.276;2023-07-13T03:24:41;23;20;
62591;PMS5003;48659;41.622;2.276;2023-07-13T03:27:09;19;19;
62591;PMS5003;48659;41.622;2.276;2023-07-13T03:29:37;17;17;
62591;PMS5003;48659;41.622;2.276;2023-07-13T03:32:05;19;18;
62591;PMS5003;48659;41.622;2.276;2023-07-13T03:34:33;23;21;
62591;PMS5003;48659;41.622;2.276;2023-07-13T03:37:01;22;20;
62591;PMS5003;48659;41.622;2.276;2023-07-13T03:39:28;19;18;
62591;PMS5003;48659;41.622;2.276;2023-07-13T03:41:56;19;15;
62591;PMS5003;48659;41.622;2.276;2023-07-13T03:44:24;23;23;
62591;PMS5003;48659;41.622;2.276;2023-07-13T03:46:51;17;16;
62591;PMS5003;48659;41.622;2.276;2023-07-13T03:49:18;21;20;
62591;PMS5003;48659;41.622;2.276;2023-07-13T03:51:46;25;23;
62591;PMS5003;48659;41.622;2.276;2023-07-13T03:54:13;17;17;
62591;PMS5003;48659;41.622;2.276;2023-07-13T03:56:40;19;17;
62591;PMS5003;48659;41.622;2.276;2023-07-13T03:59:08;19;19;
62591;PMS5003;48659;41.622;2.276;2023-07-13T04:01:37;25;21;
62591;PMS5003;48659;41.622;2.276;2023-07-13T04:04:05;19;18;
62591;PMS5003;48659;41.622;2.276;2023-07-13T04:06:33;21;20;
62591;PMS5003;48659;41.622;2.276;2023-07-13T04:09:02;22;22;
62591;PMS5003;48659;41.622;2.276;2023-07-13T04:11:31;24;24;
62591;PMS5003;48659;41.622;2.276;2023-07-13T04:13:59;24;22;
62591;PMS5003;48659;41.622;2.276;2023-07-13T04:16:28;27;25;
62591;PMS5003;48659;41.622;2.276;2023-07-13T04:18:55;29;22;
62591;PMS5003;48659;41.622;2.276;2023-07-13T04:21:24;32;26;
62591;PMS5003;48659;41.622;2.276;2023-07-13T04:23:54;24;23;
62591;PMS5003;48659;41.622;2.276;2023-07-13T04:26:22;23;23;
62591;PMS5003;48659;41.622;2.276;2023-07-13T04:28:50;26;24;
62591;PMS5003;48659;41.622;2.276;2023-07-13T04:31:18;37;34;
62591;PMS5003;48659;41.622;2.276;2023-07-13T04:33:46;32;30;
62591;PMS5003;48659;41.622;2.276;2023-07-13T04:36:15;31;26;
62591;PMS5003;48659;41.622;2.276;2023-07-13T04:38:43;23;21;
62591;PMS5003;48659;41.622;2.276;2023-07-13T04:41:11;27;26;
62591;PMS5003;48659;41.622;2.276;2023-07-13T04:43:40;24;22;
62591;PMS5003;48659;41.622;2.276;2023-07-13T04:46:07;24;21;
62591;PMS5003;48659;41.622;2.276;2023-07-13T04:48:37;23;23;
62591;PMS5003;48659;41.622;2.276;2023-07-13T04:51:05;27;22;
62591;PMS5003;48659;41.622;2.276;2023-07-13T04:53:33;24;23;
62591;PMS5003;48659;41.622;2.276;2023-07-13T04:56:00;26;22;
62591;PMS5003;48659;41.622;2.276;2023-07-13T04:58:28;20;19;
62591;PMS5003;48659;41.622;2.276;2023-07-13T05:00:59;22;17;
62591;PMS5003;48659;41.622;2.276;2023-07-13T05:03:27;20;19;
62591;PMS5003;48659;41.622;2.276;2023-07-13T05:05:56;18;18;
62591;PMS5003;48659;41.622;2.276;2023-07-13T05:08:25;23;23;
62591;PMS5003;48659;41.622;2.276;2023-07-13T05:10:53;27;22;
62591;PMS5003;48659;41.622;2.276;2023-07-13T05:13:21;26;22;
62591;PMS5003;48659;41.622;2.276;2023-07-13T05:15:55;25;23;
62591;PMS5003;48659;41.622;2.276;2023-07-13T05:18:24;24;22;
62591;PMS5003;48659;41.622;2.276;2023-07-13T05:20:56;26;22;
62591;PMS5003;48659;41.622;2.276;2023-07-13T05:23:25;24;23;
62591;PMS5003;48659;41.622;2.276;2023-07-13T05:25:53;22;19;
62591;PMS5003;48659;41.622;2.276;2023-07-13T05:28:20;19;19;
62591;PMS5003;48659;41.622;2.276;2023-07-13T05:30:49;23;22;
62591;PMS5003;48659;41.622;2.276;2023-07-13T05:33:17;25;22;
62591;PMS5003;48659;41.622;2.276;2023-07-13T05:35:45;28;24;
62591;PMS5003;48659;41.622;2.276;2023-07-13T05:38:12;27;23;
62591;PMS5003;48659;41.622;2.276;2023-07-13T05:40:42;26;24;
62591;PMS5003;48659;41.622;2.276;2023-07-13T05:43:10;23;19;
62591;PMS5003;48659;41.622;2.276;2023-07-13T05:45:37;20;19;
62591;PMS5003;48659;41.622;2.276;2023-07-13T05:48:05;23;20;
62591;PMS5003;48659;41.622;2.276;2023-07-13T05:50:32;19;18;
62591;PMS5003;48659;41.622;2.276;2023-07-13T05:53:00;21;18;
62591;PMS5003;48659;41.622;2.276;2023-07-13T05:55:27;22;20;
62591;PMS5003;48659;41.622;2.276;2023-07-13T05:57:55;19;18;
62591;PMS5003;48659;41.622;2.276;2023-07-13T06:00:22;21;19;
62591;PMS5003;48659;41.622;2.276;2023-07-13T06:02:50;23;21;
62591;PMS5003;48659;41.622;2.276;2023-07-13T06:05:17;17;16;
62591;PMS5003;48659;41.622;2.276;2023-07-13T06:07:44;18;16;
62591;PMS5003;48659;41.622;2.276;2023-07-13T06:10:12;20;19;
62591;PMS5003;48659;41.622;2.276;2023-07-13T06:12:40;18;18;
62591;PMS5003;48659;41.622;2.276;2023-07-13T06:15:08;19;17;
62591;PMS5003;48659;41.622;2.276;2023-07-13T06:17:36;24;19;
62591;PMS5003;48659;41.622;2.276;2023-07-13T06:20:04;18;17;
62591;PMS5003;48659;41.622;2.276;2023-07-13T06:22:32;26;20;
62591;PMS5003;48659;41.622;2.276;2023-07-13T06:25:00;16;16;
62591;PMS5003;48659;41.622;2.276;2023-07-13T06:27:27;18;16;
62591;PMS5003;48659;41.622;2.276;2023-07-13T06:29:55;14;13;
62591;PMS5003;48659;41.622;2.276;2023-07-13T06:32:23;16;16;
62591;PMS5003;48659;41.622;2.276;2023-07-13T06:34:50;17;16;
62591;PMS5003;48659;41.622;2.276;2023-07-13T06:37:18;18;18;
62591;PMS5003;48659;41.622;2.276;2023-07-13T06:39:45;17;14;
62591;PMS5003;48659;41.622;2.276;2023-07-13T06:42:13;18;15;
62591;PMS5003;48659;41.622;2.276;2023-07-13T06:44:43;14;14;
62591;PMS5003;48659;41.622;2.276;2023-07-13T06:47:10;14;11;
62591;PMS5003;48659;41.622;2.276;2023-07-13T06:49:38;13;13;
62591;PMS5003;48659;41.622;2.276;2023-07-13T06:52:06;17;14;
62591;PMS5003;48659;41.622;2.276;2023-07-13T06:54:33;19;17;
62591;PMS5003;48659;41.622;2.276;2023-07-13T06:57:00;27;23;
62591;PMS5003;48659;41.622;2.276;2023-07-13T06:59:28;17;17;
62591;PMS5003;48659;41.622;2.276;2023-07-13T07:01:56;18;17;
62591;PMS5003;48659;41.622;2.276;2023-07-13T07:04:23;17;15;
62591;PMS5003;48659;41.622;2.276;2023-07-13T07:06:56;19;17;
62591;PMS5003;48659;41.622;2.276;2023-07-13T07:09:24;24;17;
62591;PMS5003;48659;41.622;2.276;2023-07-13T07:11:54;15;14;
62591;PMS5003;48659;41.622;2.276;2023-07-13T07:14:22;22;21;
62591;PMS5003;48659;41.622;2.276;2023-07-13T07:16:49;18;16;
62591;PMS5003;48659;41.622;2.276;2023-07-13T07:19:18;20;17;
62591;PMS5003;48659;41.622;2.276;2023-07-13T07:21:45;17;17;
62591;PMS5003;48659;41.622;2.276;2023-07-13T07:24:22;14;11;
62591;PMS5003;48659;41.622;2.276;2023-07-13T07:26:55;15;13;
62591;PMS5003;48659;41.622;2.276;2023-07-13T07:29:23;15;13;
62591;PMS5003;48659;41.622;2.276;2023-07-13T07:31:50;12;12;
62591;PMS5003;48659;41.622;2.276;2023-07-13T07:34:19;12;12;
62591;PMS5003;48659;41.622;2.276;2023-07-13T07:36:46;11;11;
62591;PMS5003;48659;41.622;2.276;2023-07-13T07:39:25;12;12;
62591;PMS5003;48659;41.622;2.276;2023-07-13T07:41:55;15;13;
62591;PMS5003;48659;41.622;2.276;2023-07-13T07:44:22;11;11;
62591;PMS5003;48659;41.622;2.276;2023-07-13T07:46:50;13;13;
62591;PMS5003;48659;41.622;2.276;2023-07-13T07:49:18;17;17;
62591;PMS5003;48659;41.622;2.276;2023-07-13T07:51:46;26;21;
62591;PMS5003;48659;41.622;2.276;2023-07-13T07:54:27;19;16;
62591;PMS5003;48659;41.622;2.276;2023-07-13T07:56:55;19;17;
62591;PMS5003;48659;41.622;2.276;2023-07-13T07:59:22;16;16;
62591;PMS5003;48659;41.622;2.276;2023-07-13T08:01:54;17;16;
62591;PMS5003;48659;41.622;2.276;2023-07-13T08:04:21;21;18;
62591;PMS5003;48659;41.622;2.276;2023-07-13T08:06:48;15;15;
62591;PMS5003;48659;41.622;2.276;2023-07-13T08:09:16;14;13;
62591;PMS5003;48659;41.622;2.276;2023-07-13T08:11:43;20;16;
62591;PMS5003;48659;41.622;2.276;2023-07-13T08:14:11;18;16;
62591;PMS5003;48659;41.622;2.276;2023-07-13T08:16:38;17;16;
62591;PMS5003;48659;41.622;2.276;2023-07-13T08:19:05;17;17;
62591;PMS5003;48659;41.622;2.276;2023-07-13T08:21:33;18;16;
62591;PMS5003;48659;41.622;2.276;2023-07-13T08:24:01;19;16;
62591;PMS5003;48659;41.622;2.276;2023-07-13T08:26:29;19;18;
62591;PMS5003;48659;41.622;2.276;2023-07-13T08:28:56;17;17;
62591;PMS5003;48659;41.622;2.276;2023-07-13T08:31:24;15;14;
62591;PMS5003;48659;41.622;2.276;2023-07-13T08:33:51;21;18;
62591;PMS5003;48659;41.622;2.276;2023-07-13T08:36:19;23;20;
62591;PMS5003;48659;41.622;2.276;2023-07-13T08:38:46;23;23;
62591;PMS5003;48659;41.622;2.276;2023-07-13T08:41:14;17;17;
62591;PMS5003;48659;41.622;2.276;2023-07-13T08:43:45;18;17;
62591;PMS5003;48659;41.622;2.276;2023-07-13T08:46:28;21;17;
62591;PMS5003;48659;41.622;2.276;2023-07-13T08:49:02;28;24;
62591;PMS5003;48659;41.622;2.276;2023-07-13T08:51:36;26;21;
62591;PMS5003;48659;41.622;2.276;2023-07-13T08:54:12;20;19;
62591;PMS5003;48659;41.622;2.276;2023-07-13T08:56:48;23;22;
62591;PMS5003;48659;41.622;2.276;2023-07-13T08:59:18;21;18;
62591;PMS5003;48659;41.622;2.276;2023-07-13T09:01:59;17;17;
62591;PMS5003;48659;41.622;2.276;2023-07-13T09:04:41;18;18;
62591;PMS5003;48659;41.622;2.276;2023-07-13T09:07:14;16;14;
62591;PMS5003;48659;41.622;2.276;2023-07-13T09:09:55;17;15;
62591;PMS5003;48659;41.622;2.276;2023-07-13T09:12:35;16;15;
62591;PMS5003;48659;41.622;2.276;2023-07-13T09:15:17;14;14;
62591;PMS5003;48659;41.622;2.276;2023-07-13T09:17:55;20;14;
62591;PMS5003;48659;41.622;2.276;2023-07-13T09:20:27;16;15;
62591;PMS5003;48659;41.622;2.276;2023-07-13T09:22:58;14;14;
62591;PMS5003;48659;41.622;2.276;2023-07-13T09:25:29;19;14;
62591;PMS5003;48659;41.622;2.276;2023-07-13T09:27:59;17;16;
62591;PMS5003;48659;41.622;2.276;2023-07-13T09:30:33;17;17;
62591;PMS5003;48659;41.622;2.276;2023-07-13T09:33:06;18;18;
62591;PMS5003;48659;41.622;2.276;2023-07-13T09:35:34;18;17;
62591;PMS5003;48659;41.622;2.276;2023-07-13T09:38:04;17;15;
62591;PMS5003;48659;41.622;2.276;2023-07-13T09:40:46;17;15;
62591;PMS5003;48659;41.622;2.276;2023-07-13T09:43:24;18;17;
62591;PMS5003;48659;41.622;2.276;2023-07-13T09:45:56;20;17;
62591;PMS5003;48659;41.622;2.276;2023-07-13T09:48:23;18;18;
62591;PMS5003;48659;41.622;2.276;2023-07-13T09:50:54;20;20;
62591;PMS5003;48659;41.622;2.276;2023-07-13T09:53:22;24;22;
62591;PMS5003;48659;41.622;2.276;2023-07-13T09:55:50;24;22;
62591;PMS5003;48659;41.622;2.276;2023-07-13T09:58:18;27;24;
62591;PMS5003;48659;41.622;2.276;2023-07-13T10:00:55;18;17;
62591;PMS5003;48659;41.622;2.276;2023-07-13T10:03:25;21;19;
62591;PMS5003;48659;41.622;2.276;2023-07-13T10:05:54;18;18;
62591;PMS5003;48659;41.622;2.276;2023-07-13T10:08:37;16;16;
62591;PMS5003;48659;41.622;2.276;2023-07-13T10:11:09;18;17;
62591;PMS5003;48659;41.622;2.276;2023-07-13T10:13:40;20;16;
62591;PMS5003;48659;41.622;2.276;2023-07-13T10:16:11;21;19;
62591;PMS5003;48659;41.622;2.276;2023-07-13T10:18:41;18;18;
62591;PMS5003;48659;41.622;2.276;2023-07-13T10:21:14;21;18;
62591;PMS5003;48659;41.622;2.276;2023-07-13T10:23:43;23;20;
62591;PMS5003;48659;41.622;2.276;2023-07-13T10:26:16;16;16;
62591;PMS5003;48659;41.622;2.276;2023-07-13T10:28:56;22;19;
62591;PMS5003;48659;41.622;2.276;2023-07-13T10:31:28;21;18;
62591;PMS5003;48659;41.622;2.276;2023-07-13T10:33:57;22;21;
62591;PMS5003;48659;41.622;2.276;2023-07-13T10:36:30;23;20;
62591;PMS5003;48659;41.622;2.276;2023-07-13T10:39:05;19;17;
62591;PMS5003;48659;41.622;2.276;2023-07-13T10:41:35;21;21;
62591;PMS5003;48659;41.622;2.276;2023-07-13T10:44:06;22;20;
62591;PMS5003;48659;41.622;2.276;2023-07-13T10:46:47;18;17;
62591;PMS5003;48659;41.622;2.276;2023-07-13T10:49:15;19;16;
62591;PMS5003;48659;41.622;2.276;2023-07-13T10:51:44;17;17;
62591;PMS5003;48659;41.622;2.276;2023-07-13T10:54:20;23;20;
62591;PMS5003;48659;41.622;2.276;2023-07-13T10:57:07;20;19;
62591;PMS5003;48659;41.622;2.276;2023-07-13T10:59:42;21;17;
62591;PMS5003;48659;41.622;2.276;2023-07-13T11:02:15;19;15;
62591;PMS5003;48659;41.622;2.276;2023-07-13T11:04:55;15;14;
62591;PMS5003;48659;41.622;2.276;2023-07-13T11:07:24;19;16;
62591;PMS5003;48659;41.622;2.276;2023-07-13T11:09:56;18;17;
62591;PMS5003;48659;41.622;2.276;2023-07-13T11:12:27;20;18;
62591;PMS5003;48659;41.622;2.276;2023-07-13T11:15:31;22;17;
62591;PMS5003;48659;41.622;2.276;2023-07-13T11:18:22;19;16;
62591;PMS5003;48659;41.622;2.276;2023-07-13T11:21:12;21;18;
62591;PMS5003;48659;41.622;2.276;2023-07-13T11:23:42;20;20;
62591;PMS5003;48659;41.622;2.276;2023-07-13T11:26:37;16;16;
62591;PMS5003;48659;41.622;2.276;2023-07-13T11:29:08;16;15;
62591;PMS5003;48659;41.622;2.276;2023-07-13T11:31:51;14;14;
62591;PMS5003;48659;41.622;2.276;2023-07-13T11:34:21;14;13;
62591;PMS5003;48659;41.622;2.276;2023-07-13T11:36:53;13;12;
62591;PMS5003;48659;41.622;2.276;2023-07-13T11:39:24;14;13;
62591;PMS5003;48659;41.622;2.276;2023-07-13T11:41:58;16;13;
62591;PMS5003;48659;41.622;2.276;2023-07-13T11:44:29;12;11;
62591;PMS5003;48659;41.622;2.276;2023-07-13T11:46:59;14;13;
62591;PMS5003;48659;41.622;2.276;2023-07-13T11:49:40;12;12;
62591;PMS5003;48659;41.622;2.276;2023-07-13T11:52:11;17;12;
62591;PMS5003;48659;41.622;2.276;2023-07-13T11:54:46;12;10;
62591;PMS5003;48659;41.622;2.276;2023-07-13T11:57:19;9;9;
62591;PMS5003;48659;41.622;2.276;2023-07-13T11:59:51;11;10;
62591;PMS5003;48659;41.622;2.276;2023-07-13T12:02:23;12;9;
62591;PMS5003;48659;41.622;2.276;2023-07-13T12:04:56;10;10;
62591;PMS5003;48659;41.622;2.276;2023-07-13T12:07:24;10;10;
62591;PMS5003;48659;41.622;2.276;2023-07-13T12:10:00;11;11;
62591;PMS5003;48659;41.622;2.276;2023-07-13T12:12:29;10;9;
62591;PMS5003;48659;41.622;2.276;2023-07-13T12:14:57;13;12;
62591;PMS5003;48659;41.622;2.276;2023-07-13T12:17:25;11;10;
62591;PMS5003;48659;41.622;2.276;2023-07-13T12:19:53;15;12;
62591;PMS5003;48659;41.622;2.276;2023-07-13T12:22:21;11;11;
62591;PMS5003;48659;41.622;2.276;2023-07-13T12:24:55;11;11;
62591;PMS5003;48659;41.622;2.276;2023-07-13T12:27:24;12;11;
62591;PMS5003;48659;41.622;2.276;2023-07-13T12:29:58;7;7;
62591;PMS5003;48659;41.622;2.276;2023-07-13T12:32:27;12;11;
62591;PMS5003;48659;41.622;2.276;2023-07-13T12:34:56;9;8;
62591;PMS5003;48659;41.622;2.276;2023-07-13T12:37:28;11;9;
62591;PMS5003;48659;41.622;2.276;2023-07-13T12:40:00;7;7;
62591;PMS5003;48659;41.622;2.276;2023-07-13T12:42:31;9;7;
62591;PMS5003;48659;41.622;2.276;2023-07-13T12:45:00;8;7;
62591;PMS5003;48659;41.622;2.276;2023-07-13T12:47:30;8;8;
62591;PMS5003;48659;41.622;2.276;2023-07-13T12:50:12;6;6;
62591;PMS5003;48659;41.622;2.276;2023-07-13T12:52:43;7;7;
62591;PMS5003;48659;41.622;2.276;2023-07-13T12:55:12;6;6;
62591;PMS5003;48659;41.622;2.276;2023-07-13T12:57:45;7;6;
62591;PMS5003;48659;41.622;2.276;2023-07-13T13:00:22;10;8;
62591;PMS5003;48659;41.622;2.276;2023-07-13T13:02:54;8;8;
62591;PMS5003;48659;41.622;2.276;2023-07-13T13:05:25;9;9;
62591;PMS5003;48659;41.622;2.276;2023-07-13T13:07:55;12;9;
62591;PMS5003;48659;41.622;2.276;2023-07-13T13:10:23;6;6;
62591;PMS5003;48659;41.622;2.276;2023-07-13T13:12:55;6;6;
62591;PMS5003;48659;41.622;2.276;2023-07-13T13:15:23;7;6;
62591;PMS5003;48659;41.622;2.276;2023-07-13T13:17:50;9;8;
62591;PMS5003;48659;41.622;2.276;2023-07-13T13:20:18;6;6;
62591;PMS5003;48659;41.622;2.276;2023-07-13T13:22:54;6;6;
62591;PMS5003;48659;41.622;2.276;2023-07-13T13:25:22;8;7;
62591;PMS5003;48659;41.622;2.276;2023-07-13T13:27:49;8;6;
62591;PMS5003;48659;41.622;2.276;2023-07-13T13:30:17;7;5;
62591;PMS5003;48659;41.622;2.276;2023-07-13T13:32:45;7;6;
62591;PMS5003;48659;41.622;2.276;2023-07-13T13:35:14;6;6;
62591;PMS5003;48659;41.622;2.276;2023-07-13T13:37:44;6;6;
62591;PMS5003;48659;41.622;2.276;2023-07-13T13:40:13;6;6;
62591;PMS5003;48659;41.622;2.276;2023-07-13T13:42:42;3;3;
62591;PMS5003;48659;41.622;2.276;2023-07-13T13:45:10;6;5;
62591;PMS5003;48659;41.622;2.276;2023-07-13T13:47:39;7;7;
62591;PMS5003;48659;41.622;2.276;2023-07-13T13:50:11;5;5;
62591;PMS5003;48659;41.622;2.276;2023-07-13T13:52:40;6;6;
62591;PMS5003;48659;41.622;2.276;2023-07-13T13:55:11;4;4;
62591;PMS5003;48659;41.622;2.276;2023-07-13T13:57:39;5;5;
62591;PMS5003;48659;41.622;2.276;2023-07-13T14:00:08;5;5;
62591;PMS5003;48659;41.622;2.276;2023-07-13T14:02:36;4;4;
62591;PMS5003;48659;41.622;2.276;2023-07-13T14:05:05;7;6;
62591;PMS5003;48659;41.622;2.276;2023-07-13T14:07:38;4;4;
62591;PMS5003;48659;41.622;2.276;2023-07-13T14:10:10;5;5;
62591;PMS5003;48659;41.622;2.276;2023-07-13T14:12:39;5;4;
62591;PMS5003;48659;41.622;2.276;2023-07-13T14:15:09;6;6;
62591;PMS5003;48659;41.622;2.276;2023-07-13T14:17:44;9;6;
62591;PMS5003;48659;41.622;2.276;2023-07-13T14:20:12;6;6;
62591;PMS5003;48659;41.622;2.276;2023-07-13T14:22:40;7;5;
62591;PMS5003;48659;41.622;2.276;2023-07-13T14:25:07;6;6;
62591;PMS5003;48659;41.622;2.276;2023-07-13T14:27:36;5;5;
62591;PMS5003;48659;41.622;2.276;2023-07-13T14:30:04;6;6;
62591;PMS5003;48659;41.622;2.276;2023-07-13T14:32:39;4;4;
62591;PMS5003;48659;41.622;2.276;2023-07-13T14:35:07;5;4;
62591;PMS5003;48659;41.622;2.276;2023-07-13T14:37:37;5;5;
62591;PMS5003;48659;41.622;2.276;2023-07-13T14:40:11;7;5;
62591;PMS5003;48659;41.622;2.276;2023-07-13T14:42:40;5;5;
62591;PMS5003;48659;41.622;2.276;2023-07-13T14:45:12;7;5;
62591;PMS5003;48659;41.622;2.276;2023-07-13T14:47:41;8;6;
62591;PMS5003;48659;41.622;2.276;2023-07-13T14:50:14;6;6;
62591;PMS5003;48659;41.622;2.276;2023-07-13T14:52:44;4;4;
62591;PMS5003;48659;41.622;2.276;2023-07-13T14:55:13;5;5;
62591;PMS5003;48659;41.622;2.276;2023-07-13T14:57:41;5;5;
62591;PMS5003;48659;41.622;2.276;2023-07-13T15:00:12;8;7;
62591;PMS5003;48659;41.622;2.276;2023-07-13T15:02:41;7;7;
62591;PMS5003;48659;41.622;2.276;2023-07-13T15:05:14;8;6;
62591;PMS5003;48659;41.622;2.276;2023-07-13T15:07:42;7;6;
62591;PMS5003;48659;41.622;2.276;2023-07-13T15:10:14;6;4;
62591;PMS5003;48659;41.622;2.276;2023-07-13T15:12:42;6;6;
62591;PMS5003;48659;41.622;2.276;2023-07-13T15:15:09;7;7;
62591;PMS5003;48659;41.622;2.276;2023-07-13T15:17:38;10;9;
62591;PMS5003;48659;41.622;2.276;2023-07-13T15:20:12;6;5;
62591;PMS5003;48659;41.622;2.276;2023-07-13T15:22:44;7;7;
62591;PMS5003;48659;41.622;2.276;2023-07-13T15:25:15;8;6;
62591;PMS5003;48659;41.622;2.276;2023-07-13T15:27:44;6;6;
62591;PMS5003;48659;41.622;2.276;2023-07-13T15:30:12;6;6;
62591;PMS5003;48659;41.622;2.276;2023-07-13T15:32:41;7;5;
62591;PMS5003;48659;41.622;2.276;2023-07-13T15:35:13;6;6;
62591;PMS5003;48659;41.622;2.276;2023-07-13T15:37:42;4;4;
62591;PMS5003;48659;41.622;2.276;2023-07-13T15:40:10;4;4;
62591;PMS5003;48659;41.622;2.276;2023-07-13T15:42:38;7;7;
62591;PMS5003;48659;41.622;2.276;2023-07-13T15:45:14;7;6;
62591;PMS5003;48659;41.622;2.276;2023-07-13T15:47:44;8;8;
62591;PMS5003;48659;41.622;2.276;2023-07-13T15:50:12;6;6;
62591;PMS5003;48659;41.622;2.276;2023-07-13T15:52:41;4;4;
62591;PMS5003;48659;41.622;2.276;2023-07-13T15:55:11;6;6;
62591;PMS5003;48659;41.622;2.276;2023-07-13T15:57:40;5;5;
62591;PMS5003;48659;41.622;2.276;2023-07-13T16:00:14;7;7;
62591;PMS5003;48659;41.622;2.276;2023-07-13T16:02:45;5;5;
62591;PMS5003;48659;41.622;2.276;2023-07-13T16:05:13;6;6;
62591;PMS5003;48659;41.622;2.276;2023-07-13T16:07:40;5;5;
62591;PMS5003;48659;41.622;2.276;2023-07-13T16:10:12;4;4;
62591;PMS5003;48659;41.622;2.276;2023-07-13T16:12:41;6;6;
62591;PMS5003;48659;41.622;2.276;2023-07-13T16:15:11;6;6;
62591;PMS5003;48659;41.622;2.276;2023-07-13T16:17:41;6;6;
62591;PMS5003;48659;41.622;2.276;2023-07-13T16:20:09;9;8;
62591;PMS5003;48659;41.622;2.276;2023-07-13T16:22:37;14;11;
62591;PMS5003;48659;41.622;2.276;2023-07-13T16:25:12;8;7;
62591;PMS5003;48659;41.622;2.276;2023-07-13T16:27:41;6;6;
62591;PMS5003;48659;41.622;2.276;2023-07-13T16:30:11;8;7;
62591;PMS5003;48659;41.622;2.276;2023-07-13T16:32:40;9;8;
62591;PMS5003;48659;41.622;2.276;2023-07-13T16:35:07;7;6;
62591;PMS5003;48659;41.622;2.276;2023-07-13T16:37:35;8;6;
62591;PMS5003;48659;41.622;2.276;2023-07-13T16:40:11;7;7;
62591;PMS5003;48659;41.622;2.276;2023-07-13T16:42:45;7;7;
62591;PMS5003;48659;41.622;2.276;2023-07-13T16:45:13;8;5;